createdAt,value
2018-04-19T00:00:45.716Z,43.60
2018-04-19T00:03:13.463Z,30.73
2018-04-19T00:05:46.007Z,32.20
2018-04-19T00:08:15.339Z,38.57
2018-04-19T00:10:44.378Z,43.37
2018-04-19T00:13:12.201Z,50.97
2018-04-19T00:15:39.918Z,33.30
2018-04-19T00:18:07.633Z,38.37
2018-04-19T00:20:35.731Z,32.10
2018-04-19T00:23:03.651Z,28.30
2018-04-19T00:25:31.628Z,31.20
2018-04-19T00:27:59.411Z,39.93
2018-04-19T00:30:28.175Z,37.20
2018-04-19T00:32:55.824Z,38.80
2018-04-19T00:35:23.626Z,36.93
2018-04-19T00:37:51.394Z,39.03
2018-04-19T00:40:19.276Z,35.07
2018-04-19T00:42:46.955Z,43.10
2018-04-19T00:45:14.879Z,41.20
2018-04-19T00:47:42.522Z,36.53
2018-04-19T00:50:10.157Z,34.70
2018-04-19T00:55:42.633Z,34.53
2018-04-19T00:58:10.343Z,36.90
2018-04-19T01:00:38.411Z,32.53
2018-04-19T01:03:06.207Z,30.43
2018-04-19T01:05:33.943Z,35.67
2018-04-19T01:08:01.610Z,25.87
2018-04-19T01:10:29.330Z,29.67
2018-04-19T01:12:56.967Z,37.33
2018-04-19T01:15:24.737Z,34.30
2018-04-19T01:17:52.760Z,38.77
2018-04-19T01:20:20.645Z,35.47
2018-04-19T01:22:48.266Z,34.77
2018-04-19T01:25:16.024Z,39.93
2018-04-19T01:27:44.035Z,31.20
2018-04-19T01:30:12.098Z,38.53
2018-04-19T01:32:39.715Z,39.77
2018-04-19T01:35:07.316Z,43.17
2018-04-19T01:37:35.053Z,35.50
2018-04-19T01:40:02.776Z,29.70
2018-04-19T01:42:30.438Z,33.20
2018-04-19T01:44:58.283Z,43.93
2018-04-19T01:47:26.135Z,42.33
2018-04-19T01:49:53.815Z,35.80
2018-04-19T01:52:21.389Z,40.97
2018-04-19T01:54:49.447Z,34.07
2018-04-19T01:57:17.057Z,41.47
2018-04-19T01:59:44.893Z,40.80
2018-04-19T02:02:12.820Z,39.10
2018-04-19T02:04:40.443Z,38.40
2018-04-19T02:07:08.160Z,40.93
2018-04-19T02:09:35.753Z,33.80
2018-04-19T02:12:03.735Z,43.93
2018-04-19T02:14:31.387Z,36.83
2018-04-19T02:16:58.977Z,40.70
2018-04-19T02:19:26.602Z,39.13
2018-04-19T02:21:54.191Z,46.20
2018-04-19T02:24:21.885Z,40.10
2018-04-19T02:26:49.974Z,42.67
2018-04-19T02:29:18.043Z,38.17
2018-04-19T02:31:45.694Z,42.77
2018-04-19T02:34:13.304Z,60.13
2018-04-19T02:36:41.043Z,41.90
2018-04-19T02:39:08.635Z,38.37
2018-04-19T02:41:36.312Z,45.00
2018-04-19T02:44:03.952Z,50.40
2018-04-19T02:46:31.602Z,37.07
2018-04-19T02:48:59.244Z,46.90
2018-04-19T02:51:26.902Z,47.97
2018-04-19T02:53:54.571Z,42.50
2018-04-19T02:56:22.831Z,58.80
2018-04-19T02:58:50.424Z,42.47
2018-04-19T03:01:18.125Z,39.33
2018-04-19T03:03:45.887Z,52.03
2018-04-19T03:06:13.890Z,44.70
2018-04-19T03:08:42.072Z,35.03
2018-04-19T03:11:09.665Z,41.50
2018-04-19T03:13:37.247Z,40.47
2018-04-19T03:16:04.916Z,41.13
2018-04-19T03:18:32.588Z,47.07
2018-04-19T03:21:00.364Z,35.73
2018-04-19T03:23:28.015Z,41.50
2018-04-19T03:25:55.947Z,46.90
2018-04-19T03:28:23.558Z,44.00
2018-04-19T03:30:51.209Z,49.33
2018-04-19T03:33:18.862Z,41.10
2018-04-19T03:35:46.861Z,43.43
2018-04-19T03:38:14.903Z,40.67
2018-04-19T03:40:42.750Z,44.80
2018-04-19T03:43:10.431Z,36.13
2018-04-19T03:45:38.278Z,56.10
2018-04-19T03:48:05.940Z,44.07
2018-04-19T03:50:33.527Z,55.77
2018-04-19T03:53:01.414Z,45.40
2018-04-19T03:55:29.073Z,45.73
2018-04-19T03:57:56.687Z,47.60
2018-04-19T04:00:24.612Z,49.30
2018-04-19T04:02:52.679Z,55.43
2018-04-19T04:05:20.281Z,67.50
2018-04-19T04:07:47.948Z,50.83
2018-04-19T04:10:15.552Z,43.70
2018-04-19T04:12:43.162Z,52.43
2018-04-19T04:15:10.964Z,50.90
2018-04-19T04:17:50.738Z,50.53
2018-04-19T04:20:30.106Z,49.87
2018-04-19T04:26:01.729Z,51.07
2018-04-19T04:28:29.380Z,50.57
2018-04-19T04:30:56.994Z,49.27
2018-04-19T04:33:25.050Z,58.23
2018-04-19T04:35:52.769Z,62.47
2018-04-19T04:38:20.449Z,50.53
2018-04-19T04:40:48.115Z,66.73
2018-04-19T04:43:15.737Z,56.30
2018-04-19T04:45:43.781Z,47.67
2018-04-19T04:48:11.382Z,49.77
2018-04-19T04:50:39.112Z,45.03
2018-04-19T04:53:06.730Z,48.13
2018-04-19T04:55:34.353Z,44.20
2018-04-19T04:58:02.037Z,49.87
2018-04-19T05:00:29.730Z,48.13
2018-04-19T05:02:57.503Z,59.97
2018-04-19T05:05:25.496Z,54.93
2018-04-19T05:07:53.193Z,54.23
2018-04-19T05:10:20.850Z,52.40
2018-04-19T05:12:48.912Z,43.87
2018-04-19T05:15:16.965Z,55.23
2018-04-19T05:17:44.600Z,47.87
2018-04-19T05:20:12.287Z,56.07
2018-04-19T05:22:40.154Z,48.87
2018-04-19T05:25:08.239Z,51.17
2018-04-19T05:27:35.870Z,42.63
2018-04-19T05:30:03.846Z,58.00
2018-04-19T05:32:31.524Z,49.70
2018-04-19T05:34:59.119Z,51.33
2018-04-19T05:37:26.852Z,48.10
2018-04-19T05:39:54.619Z,50.27
2018-04-19T05:42:22.305Z,46.37
2018-04-19T05:44:49.909Z,42.03
2018-04-19T05:47:17.532Z,48.63
2018-04-19T05:49:45.149Z,57.67
2018-04-19T05:52:12.751Z,49.90
2018-04-19T05:54:40.935Z,46.00
2018-04-19T05:57:08.577Z,53.30
2018-04-19T05:59:36.204Z,47.57
2018-04-19T06:02:03.835Z,45.50
2018-04-19T06:04:31.436Z,47.17
2018-04-19T06:06:59.167Z,45.67
2018-04-19T06:09:26.837Z,48.80
2018-04-19T06:11:54.450Z,43.97
2018-04-19T06:14:22.212Z,50.40
2018-04-19T06:16:49.826Z,46.93
2018-04-19T06:19:17.451Z,46.83
2018-04-19T06:21:45.573Z,45.73
2018-04-19T06:24:13.254Z,48.23
2018-04-19T06:26:40.854Z,48.53
2018-04-19T06:29:08.669Z,44.63
2018-04-19T06:31:36.653Z,49.83
2018-04-19T06:34:04.252Z,44.27
2018-04-19T06:36:31.873Z,45.03
2018-04-19T06:38:59.534Z,45.93
2018-04-19T06:41:27.777Z,45.40
2018-04-19T06:43:55.390Z,41.70
2018-04-19T06:46:22.973Z,45.23
2018-04-19T06:48:50.596Z,41.73
2018-04-19T06:51:18.671Z,43.70
2018-04-19T06:53:46.383Z,43.50
2018-04-19T06:56:14.129Z,44.40
2018-04-19T06:58:41.756Z,37.17
2018-04-19T07:01:09.435Z,35.77
2018-04-19T07:03:37.162Z,44.17
2018-04-19T07:06:04.768Z,42.17
2018-04-19T07:08:32.436Z,45.37
2018-04-19T07:11:00.037Z,41.87
2018-04-19T07:13:27.913Z,47.10
2018-04-19T07:15:55.695Z,42.63
2018-04-19T07:18:23.288Z,45.00
2018-04-19T07:20:51.225Z,37.90
2018-04-19T07:23:18.842Z,46.07
2018-04-19T07:25:46.587Z,36.23
2018-04-19T07:28:14.256Z,39.60
2018-04-19T07:30:41.961Z,39.33
2018-04-19T07:33:09.548Z,35.60
2018-04-19T07:35:37.139Z,39.80
2018-04-19T07:38:04.930Z,38.43
2018-04-19T07:40:32.523Z,47.90
2018-04-19T07:43:00.106Z,33.30
2018-04-19T07:45:27.731Z,33.67
2018-04-19T07:47:55.434Z,33.47
2018-04-19T07:50:23.363Z,29.60
2018-04-19T07:52:50.961Z,30.47
2018-04-19T07:55:18.759Z,36.33
2018-04-19T07:57:46.406Z,33.77
2018-04-19T08:00:14.024Z,35.13
2018-04-19T08:02:41.638Z,36.37
2018-04-19T08:05:09.569Z,33.53
2018-04-19T08:07:37.256Z,33.87
2018-04-19T08:10:04.899Z,35.83
2018-04-19T08:12:32.558Z,29.50
2018-04-19T08:15:00.213Z,34.03
2018-04-19T08:17:27.861Z,33.57
2018-04-19T08:19:55.456Z,34.13
2018-04-19T08:22:23.273Z,33.33
2018-04-19T08:24:50.874Z,39.17
2018-04-19T08:27:18.810Z,31.10
2018-04-19T08:29:46.448Z,30.20
2018-04-19T08:32:14.096Z,28.80
2018-04-19T08:34:41.844Z,27.07
2018-04-19T08:37:09.703Z,31.03
2018-04-19T08:39:37.364Z,27.60
2018-04-19T08:42:05.215Z,28.57
2018-04-19T08:44:33.030Z,29.87
2018-04-19T08:47:00.768Z,31.20
2018-04-19T08:49:28.415Z,33.43
2018-04-19T08:51:56.895Z,28.97
2018-04-19T08:54:24.594Z,29.13
2018-04-19T08:56:52.187Z,25.83
2018-04-19T08:59:20.287Z,26.47
2018-04-19T09:01:48.030Z,28.47
2018-04-19T09:04:15.659Z,24.83
2018-04-19T09:06:43.319Z,24.67
2018-04-19T09:09:11.342Z,31.87
2018-04-19T09:11:39.004Z,26.13
2018-04-19T09:14:06.609Z,34.63
2018-04-19T09:16:34.261Z,33.07
2018-04-19T09:19:01.915Z,29.10
2018-04-19T09:21:29.569Z,29.47
2018-04-19T09:23:57.229Z,22.20
2018-04-19T09:26:24.846Z,26.33
2018-04-19T09:28:52.588Z,36.33
2018-04-19T09:31:20.181Z,23.43
2018-04-19T09:33:48.932Z,28.33
2018-04-19T09:36:16.567Z,27.00
2018-04-19T09:38:44.250Z,23.83
2018-04-19T09:41:13.040Z,34.57
2018-04-19T09:43:41.632Z,21.30
2018-04-19T09:46:09.331Z,32.83
2018-04-19T09:48:36.968Z,25.53
2018-04-19T09:51:04.946Z,23.57
2018-04-19T09:53:32.667Z,24.47
2018-04-19T09:56:00.740Z,22.50
2018-04-19T09:58:28.458Z,22.40
2018-04-19T10:01:01.543Z,27.10
2018-04-19T10:03:29.254Z,24.70
2018-04-19T10:06:00.754Z,22.80
2018-04-19T10:08:28.435Z,23.67
2018-04-19T10:10:56.601Z,20.10
2018-04-19T10:13:24.475Z,15.47
2018-04-19T10:15:52.407Z,22.87
2018-04-19T10:18:20.075Z,17.60
2018-04-19T10:20:48.069Z,18.67
2018-04-19T10:23:15.707Z,17.70
2018-04-19T10:25:43.372Z,19.17
2018-04-19T10:28:10.968Z,15.50
2018-04-19T10:30:38.924Z,21.47
2018-04-19T10:33:06.521Z,20.47
2018-04-19T10:35:34.148Z,13.63
2018-04-19T10:38:02.143Z,10.57
2018-04-19T10:40:29.757Z,16.67
2018-04-19T10:42:57.846Z,13.90
2018-04-19T10:45:25.501Z,14.10
2018-04-19T10:47:53.115Z,17.53
2018-04-19T10:50:22.021Z,16.73
2018-04-19T10:52:49.614Z,11.67
2018-04-19T10:55:17.317Z,19.00
2018-04-19T10:57:45.039Z,15.60
2018-04-19T11:00:12.873Z,17.00
2018-04-19T11:02:40.609Z,16.63
2018-04-19T11:05:08.201Z,11.73
2018-04-19T11:07:36.113Z,11.37
2018-04-19T11:10:03.731Z,11.50
2018-04-19T11:12:31.408Z,12.43
2018-04-19T11:14:59.026Z,18.63
2018-04-19T11:17:26.957Z,16.10
2018-04-19T11:19:54.660Z,16.47
2018-04-19T11:22:22.719Z,13.20
2018-04-19T11:24:50.317Z,17.37
2018-04-19T11:27:18.049Z,13.33
2018-04-19T11:29:45.668Z,9.73
2018-04-19T11:32:13.325Z,14.30
2018-04-19T11:34:41.076Z,11.47
2018-04-19T11:37:08.792Z,7.17
2018-04-19T11:39:36.531Z,6.20
2018-04-19T11:42:04.184Z,10.57
2018-04-19T11:44:31.859Z,15.40
2018-04-19T11:47:00.662Z,13.97
2018-04-19T11:49:28.268Z,11.97
2018-04-19T11:51:55.973Z,14.90
2018-04-19T11:54:23.586Z,15.03
2018-04-19T11:56:51.517Z,11.23
2018-04-19T11:59:19.357Z,11.37
2018-04-19T12:01:47.017Z,8.93
2018-04-19T12:04:14.653Z,5.07
2018-04-19T12:06:42.400Z,6.83
2018-04-19T12:09:09.993Z,5.10
2018-04-19T12:11:37.627Z,5.53
2018-04-19T12:14:05.296Z,8.13
2018-04-19T12:16:32.936Z,8.10
2018-04-19T12:19:00.514Z,5.83
2018-04-19T12:21:28.144Z,15.23
2018-04-19T12:23:55.817Z,8.50
2018-04-19T12:26:23.512Z,11.67
2018-04-19T12:28:51.175Z,7.23
2018-04-19T12:31:18.767Z,8.37
2018-04-19T12:33:46.495Z,7.13
2018-04-19T12:36:14.131Z,10.50
2018-04-19T12:38:41.717Z,8.03
2018-04-19T12:41:09.391Z,6.97
2018-04-19T12:43:37.221Z,10.23
2018-04-19T12:46:04.838Z,7.60
2018-04-19T12:48:32.493Z,6.83
2018-04-19T12:51:00.288Z,11.40
2018-04-19T12:53:27.880Z,7.90
2018-04-19T12:55:55.475Z,9.07
2018-04-19T12:58:23.512Z,9.60
2018-04-19T13:00:51.087Z,6.23
2018-04-19T13:03:18.684Z,11.43
2018-04-19T13:05:46.283Z,8.80
2018-04-19T13:08:13.919Z,7.20
2018-04-19T13:10:41.890Z,8.10
2018-04-19T13:13:09.590Z,7.13
2018-04-19T13:15:37.261Z,6.43
2018-04-19T13:18:05.045Z,6.60
2018-04-19T13:20:32.690Z,5.93
2018-04-19T13:23:00.272Z,4.47
2018-04-19T13:25:27.891Z,5.30
2018-04-19T13:27:55.502Z,6.00
2018-04-19T13:30:23.284Z,6.47
2018-04-19T13:32:50.904Z,6.80
2018-04-19T13:35:18.572Z,4.57
2018-04-19T13:37:46.162Z,6.90
2018-04-19T13:40:13.788Z,4.37
2018-04-19T13:42:41.453Z,7.40
2018-04-19T13:45:09.372Z,3.93
2018-04-19T13:47:37.007Z,5.57
2018-04-19T13:50:04.607Z,3.87
2018-04-19T13:52:32.683Z,6.33
2018-04-19T13:55:00.321Z,5.30
2018-04-19T13:57:27.968Z,2.63
2018-04-19T13:59:55.672Z,2.97
2018-04-19T14:02:23.345Z,4.27
2018-04-19T14:04:50.956Z,11.00
2018-04-19T14:07:18.552Z,4.63
2018-04-19T14:09:46.223Z,10.50
2018-04-19T14:12:13.820Z,3.30
2018-04-19T14:14:41.432Z,1.90
2018-04-19T14:17:09.181Z,4.80
2018-04-19T14:19:36.809Z,2.67
2018-04-19T14:22:04.400Z,4.60
2018-04-19T14:24:32.420Z,3.90
2018-04-19T14:27:00.008Z,5.83
2018-04-19T14:29:27.597Z,4.50
2018-04-19T14:31:55.202Z,3.53
2018-04-19T14:34:22.803Z,2.93
2018-04-19T14:36:50.416Z,1.80
2018-04-19T14:39:18.068Z,3.00
2018-04-19T14:41:46.190Z,2.13
2018-04-19T14:44:13.855Z,6.43
2018-04-19T14:46:41.532Z,10.00
2018-04-19T14:49:09.167Z,4.87
2018-04-19T14:51:36.813Z,5.43
2018-04-19T14:54:04.465Z,2.20
2018-04-19T14:56:32.178Z,3.90
2018-04-19T14:58:59.775Z,1.83
2018-04-19T15:01:27.397Z,4.83
2018-04-19T15:03:55.064Z,3.60
2018-04-19T15:06:22.683Z,1.73
2018-04-19T15:08:50.613Z,6.23
2018-04-19T15:11:18.298Z,8.00
2018-04-19T15:13:45.925Z,4.20
2018-04-19T15:16:13.558Z,5.30
2018-04-19T15:18:41.606Z,6.23
2018-04-19T15:21:09.252Z,7.73
2018-04-19T15:23:36.975Z,6.80
2018-04-19T15:26:04.602Z,4.57
2018-04-19T15:28:32.182Z,5.30
2018-04-19T15:30:59.802Z,3.90
2018-04-19T15:33:27.465Z,4.40
2018-04-19T15:35:56.169Z,8.37
2018-04-19T15:38:23.782Z,8.67
2018-04-19T15:40:51.758Z,4.00
2018-04-19T15:43:19.622Z,8.83
2018-04-19T15:45:47.408Z,8.23
2018-04-19T15:48:15.021Z,7.80
2018-04-19T15:50:43.322Z,6.63
2018-04-19T15:53:11.024Z,8.83
2018-04-19T15:55:38.678Z,6.20
2018-04-19T15:58:06.586Z,6.20
2018-04-19T16:00:34.281Z,7.27
2018-04-19T16:03:01.874Z,10.50
2018-04-19T16:05:29.620Z,6.10
2018-04-19T16:07:57.324Z,12.50
2018-04-19T16:10:24.901Z,6.03
2018-04-19T16:12:52.577Z,4.43
2018-04-19T16:15:21.050Z,9.07
2018-04-19T16:17:48.938Z,6.37
2018-04-19T16:20:16.821Z,8.23
2018-04-19T16:22:44.441Z,7.00
2018-04-19T16:25:12.114Z,11.73
2018-04-19T16:27:40.244Z,12.03
2018-04-19T16:30:07.902Z,8.10
2018-04-19T16:32:35.563Z,9.60
2018-04-19T16:35:03.226Z,13.23
2018-04-19T16:37:30.936Z,7.00
2018-04-19T16:39:58.688Z,5.03
2018-04-19T16:42:26.314Z,9.47
2018-04-19T16:44:54.046Z,13.77
2018-04-19T16:47:25.755Z,6.83
2018-04-19T16:49:54.359Z,10.03
2018-04-19T16:52:30.862Z,11.30
2018-04-19T16:54:58.854Z,5.93
2018-04-19T16:57:26.450Z,11.33
2018-04-19T16:59:54.064Z,11.57
2018-04-19T17:02:22.039Z,7.07
2018-04-19T17:04:49.715Z,8.73
2018-04-19T17:07:17.318Z,12.50
2018-04-19T17:09:44.954Z,9.67
2018-04-19T17:12:12.625Z,8.00
2018-04-19T17:14:40.284Z,7.67
2018-04-19T17:17:07.951Z,6.60
2018-04-19T17:19:35.672Z,7.70
2018-04-19T17:22:03.378Z,8.13
2018-04-19T17:24:31.104Z,6.17
2018-04-19T17:26:59.059Z,16.10
2018-04-19T17:29:26.741Z,9.80
2018-04-19T17:31:54.685Z,8.40
2018-04-19T17:34:22.297Z,10.07
2018-04-19T17:36:50.221Z,7.63
2018-04-19T17:39:17.852Z,5.13
2018-04-19T17:41:45.572Z,11.97
2018-04-19T17:44:13.191Z,5.33
2018-04-19T17:46:40.798Z,14.03
2018-04-19T17:49:08.874Z,8.53
2018-04-19T17:51:36.818Z,9.23
2018-04-19T17:54:04.440Z,19.77
2018-04-19T17:56:32.625Z,8.30
2018-04-19T17:59:00.640Z,6.87
2018-04-19T18:01:28.304Z,9.60
2018-04-19T18:03:55.913Z,9.43
2018-04-19T18:06:23.571Z,13.90
2018-04-19T18:08:51.220Z,6.37
2018-04-19T18:11:18.855Z,8.67
2018-04-19T18:13:46.443Z,6.17
2018-04-19T18:16:14.072Z,14.93
2018-04-19T18:18:41.733Z,19.33
2018-04-19T18:21:09.363Z,9.40
2018-04-19T18:23:36.977Z,15.80
2018-04-19T18:26:04.810Z,10.53
2018-04-19T18:28:32.458Z,20.07
2018-04-19T18:31:00.143Z,8.97
2018-04-19T18:33:27.921Z,9.27
2018-04-19T18:35:55.944Z,11.10
2018-04-19T18:38:23.536Z,17.57
2018-04-19T18:40:51.265Z,15.60
2018-04-19T18:43:18.979Z,11.90
2018-04-19T18:45:46.928Z,9.30
2018-04-19T18:48:14.600Z,20.77
2018-04-19T18:50:42.395Z,17.37
2018-04-19T18:53:10.150Z,11.87
2018-04-19T18:55:38.187Z,11.93
2018-04-19T18:58:05.780Z,15.60
2018-04-19T19:00:33.413Z,20.83
2018-04-19T19:03:01.055Z,14.30
2018-04-19T19:05:28.859Z,26.00
2018-04-19T19:07:56.546Z,16.57
2018-04-19T19:10:24.222Z,18.23
2018-04-19T19:12:51.829Z,21.30
2018-04-19T19:18:50.605Z,25.90
2018-04-19T19:21:18.199Z,21.57
2018-04-19T19:23:45.782Z,22.43
2018-04-19T19:26:13.463Z,30.43
2018-04-19T19:28:41.123Z,26.47
2018-04-19T19:31:08.835Z,32.53
2018-04-19T19:33:36.671Z,21.97
2018-04-19T19:36:04.297Z,28.13
2018-04-19T19:38:32.098Z,35.67
2018-04-19T19:41:00.023Z,22.27
2018-04-19T19:43:27.783Z,30.80
2018-04-19T19:45:55.573Z,29.43
2018-04-19T19:48:23.502Z,26.87
2018-04-19T19:50:51.105Z,26.50
2018-04-19T19:53:18.821Z,24.70
2018-04-19T19:55:46.430Z,29.20
2018-04-19T19:58:14.065Z,25.23
2018-04-19T20:00:41.683Z,21.87
2018-04-19T20:03:09.339Z,27.03
2018-04-19T20:05:37.003Z,26.23
2018-04-19T20:08:04.681Z,24.37
2018-04-19T20:10:32.367Z,29.03
2018-04-19T20:12:59.990Z,24.63
2018-04-19T20:15:27.740Z,27.40
2018-04-19T20:17:56.657Z,24.73
2018-04-19T20:20:24.435Z,22.63
2018-04-19T20:22:52.171Z,33.47
2018-04-19T20:25:19.940Z,23.43
2018-04-19T20:27:47.854Z,36.53
2018-04-19T20:30:15.583Z,30.30
2018-04-19T20:32:43.561Z,29.33
2018-04-19T20:35:11.256Z,26.77
2018-04-19T20:37:39.095Z,26.40
2018-04-19T20:40:07.027Z,38.13
2018-04-19T20:42:35.060Z,27.37
2018-04-19T20:45:02.895Z,24.63
2018-04-19T20:47:30.568Z,35.83
2018-04-19T20:49:58.301Z,35.30
2018-04-19T20:52:26.037Z,30.87
2018-04-19T20:54:53.660Z,33.37
2018-04-19T20:57:21.442Z,34.77
2018-04-19T20:59:49.236Z,34.50
2018-04-19T21:02:16.882Z,30.47
2018-04-19T21:04:45.005Z,40.53
2018-04-19T21:07:12.998Z,31.47
2018-04-19T21:09:40.677Z,35.33
2018-04-19T21:12:08.748Z,42.80
2018-04-19T21:14:36.348Z,39.87
2018-04-19T21:17:04.051Z,37.47
2018-04-19T21:19:31.755Z,34.23
2018-04-19T21:21:59.388Z,29.63
2018-04-19T21:24:27.008Z,33.20
2018-04-19T21:26:54.712Z,33.87
2018-04-19T21:29:22.391Z,37.77
2018-04-19T21:31:50.229Z,34.67
2018-04-19T21:34:18.297Z,34.37
2018-04-19T21:36:46.221Z,39.30
2018-04-19T21:39:13.957Z,32.80
2018-04-19T21:41:42.273Z,33.17
2018-04-19T21:44:09.976Z,38.13
2018-04-19T21:46:37.600Z,38.60
2018-04-19T21:49:05.364Z,36.97
2018-04-19T21:51:33.109Z,46.57
2018-04-19T21:54:00.785Z,36.03
2018-04-19T21:56:28.469Z,37.47
2018-04-19T21:58:56.126Z,34.30
2018-04-19T22:01:23.889Z,44.57
2018-04-19T22:03:51.651Z,42.60
2018-04-19T22:06:19.290Z,42.70
2018-04-19T22:08:46.935Z,37.17
2018-04-19T22:11:14.700Z,39.40
2018-04-19T22:13:43.256Z,37.47
2018-04-19T22:16:11.328Z,39.80
2018-04-19T22:18:38.994Z,38.73
2018-04-19T22:21:07.184Z,43.63
2018-04-19T22:23:34.912Z,38.60
2018-04-19T22:26:02.648Z,42.43
2018-04-19T22:28:30.373Z,40.90
2018-04-19T22:30:57.984Z,45.23
2018-04-19T22:33:25.599Z,38.50
2018-04-19T22:35:53.274Z,41.40
2018-04-19T22:38:20.961Z,35.93
2018-04-19T22:40:48.824Z,38.03
2018-04-19T22:43:16.517Z,42.03
2018-04-19T22:45:44.148Z,36.33
2018-04-19T22:48:11.844Z,38.60
2018-04-19T22:50:39.849Z,45.10
2018-04-19T22:53:07.882Z,46.53
2018-04-19T22:55:35.772Z,45.90
2018-04-19T22:58:03.396Z,35.50
2018-04-19T23:00:31.256Z,38.40
2018-04-19T23:02:58.915Z,39.97
2018-04-19T23:05:26.830Z,39.53
2018-04-19T23:07:55.026Z,37.00
2018-04-19T23:10:22.619Z,36.90
2018-04-19T23:12:50.215Z,42.57
2018-04-19T23:15:17.927Z,38.57
2018-04-19T23:17:45.533Z,42.10
2018-04-19T23:20:13.141Z,33.60
2018-04-19T23:22:41.098Z,45.03
2018-04-19T23:25:09.003Z,37.03
2018-04-19T23:27:36.664Z,33.17
2018-04-19T23:30:04.626Z,34.37
2018-04-19T23:32:32.569Z,33.50
2018-04-19T23:35:00.638Z,36.10
2018-04-19T23:37:28.384Z,35.37
2018-04-19T23:39:56.096Z,37.00
2018-04-19T23:42:23.699Z,33.37
2018-04-19T23:44:51.384Z,42.03
2018-04-19T23:47:19.020Z,33.37
2018-04-19T23:49:46.767Z,36.37
2018-04-19T23:52:14.450Z,35.30
2018-04-19T23:54:42.142Z,34.70
2018-04-19T23:57:10.049Z,33.00
2018-04-19T23:59:38.163Z,32.47
